Time;durP1;ratioP1;P1;durP2;ratioP2;P2;SDS_P1;SDS_P2;PMS_P1;PMS_P2;Temp;Humidity;BMP_temperature;BMP_pressure;BME280_temperature;BME280_humidity;BME280_pressure;Samples;Min_cycle;Max_cycle;Signal;HPM_P1;HPM_P2
2022/07/25 00:00:36;;;;;;;8.23;4.38;;;21.40;99.90;;;;;;5081343;27;20040;-96
2022/07/25 00:03:06;;;;;;;5.60;4.95;;;21.30;99.90;;;;;;5100312;27;20046;-96
2022/07/25 00:05:33;;;;;;;5.60;4.82;;;21.30;99.90;;;;;;5077754;27;20041;-96
2022/07/25 00:08:00;;;;;;;5.55;4.57;;;21.30;99.90;;;;;;5090063;27;20089;-96
2022/07/25 00:10:27;;;;;;;5.95;4.05;;;21.30;99.90;;;;;;5082231;27;20047;-96
2022/07/25 00:12:54;;;;;;;4.95;4.45;;;21.20;99.90;;;;;;5078788;28;20039;-96
2022/07/25 00:15:21;;;;;;;8.65;4.75;;;21.20;99.90;;;;;;5076643;27;20039;-96
2022/07/25 00:17:47;;;;;;;6.45;5.28;;;21.20;99.90;;;;;;5031851;28;20135;-96
2022/07/25 00:20:14;;;;;;;7.05;5.07;;;21.20;99.90;;;;;;5077850;28;20043;-96
2022/07/25 00:22:46;;;;;;;6.78;6.03;;;21.20;99.90;;;;;;5082576;28;20103;-95
2022/07/25 00:25:13;;;;;;;8.30;5.60;;;21.10;99.90;;;;;;5084713;28;20042;-95
2022/07/25 00:27:42;;;;;;;6.10;5.50;;;21.10;99.90;;;;;;5063697;28;20076;-95
2022/07/25 00:30:09;;;;;;;7.45;6.10;;;21.00;99.90;;;;;;5073918;28;20593;-94
2022/07/25 00:32:35;;;;;;;8.82;6.45;;;21.10;99.90;;;;;;5070677;28;20409;-96
2022/07/25 00:35:02;;;;;;;8.05;6.70;;;21.00;99.90;;;;;;5074112;28;20122;-94
2022/07/25 00:37:28;;;;;;;7.93;7.00;;;20.90;99.90;;;;;;5071519;28;20094;-95
2022/07/25 00:39:55;;;;;;;8.27;7.03;;;20.90;99.90;;;;;;5038697;28;20570;-93
2022/07/25 00:42:22;;;;;;;6.80;5.95;;;21.00;99.90;;;;;;5064232;28;20048;-94
2022/07/25 00:44:53;;;;;;;7.85;6.65;;;20.90;99.90;;;;;;5064758;28;20044;-94
2022/07/25 00:47:19;;;;;;;7.75;6.95;;;20.90;99.90;;;;;;5062898;28;20052;-96
2022/07/25 00:49:45;;;;;;;7.00;6.30;;;20.90;99.90;;;;;;5051352;28;20067;-94
2022/07/25 00:52:12;;;;;;;8.43;6.88;;;20.90;99.90;;;;;;5061838;28;20144;-94
2022/07/25 00:54:39;;;;;;;9.45;7.32;;;20.90;99.90;;;;;;5092473;28;20105;-94
2022/07/25 00:57:05;;;;;;;8.15;7.38;;;20.80;99.90;;;;;;5105135;28;20440;-93
2022/07/25 00:59:34;;;;;;;9.10;7.60;;;20.80;99.90;;;;;;5083192;28;20127;-94
2022/07/25 01:02:01;;;;;;;8.10;7.15;;;20.80;99.90;;;;;;5056411;28;20371;-95
2022/07/25 01:04:27;;;;;;;8.48;7.63;;;20.70;99.90;;;;;;5069640;28;20048;-94
2022/07/25 01:06:54;;;;;;;9.60;7.57;;;20.70;99.90;;;;;;5068626;28;20487;-94
2022/07/25 01:09:21;;;;;;;9.65;8.52;;;20.70;99.90;;;;;;5068382;28;20548;-95
2022/07/25 01:11:48;;;;;;;9.98;8.65;;;20.70;99.90;;;;;;5053337;28;20051;-94
2022/07/25 01:14:16;;;;;;;10.00;9.00;;;20.70;99.90;;;;;;5033025;28;20511;-93
2022/07/25 01:16:42;;;;;;;11.48;9.38;;;20.60;99.90;;;;;;5050668;28;20048;-94
2022/07/25 01:19:09;;;;;;;10.57;9.48;;;20.60;99.90;;;;;;5050497;28;20036;-95
2022/07/25 01:21:38;;;;;;;10.43;9.27;;;20.60;99.90;;;;;;5043113;28;20048;-95
2022/07/25 01:24:05;;;;;;;10.70;9.55;;;20.50;99.90;;;;;;5062507;28;20040;-93
2022/07/25 01:26:38;;;;;;;11.38;10.23;;;20.60;99.90;;;;;;5050669;28;20059;-94
2022/07/25 01:29:04;;;;;;;11.52;10.43;;;20.50;99.90;;;;;;5086636;28;20047;-95
2022/07/25 01:31:34;;;;;;;10.40;9.38;;;20.40;99.90;;;;;;5069952;28;20196;-94
2022/07/25 01:34:01;;;;;;;12.23;11.02;;;20.40;99.90;;;;;;5057513;28;20039;-95
2022/07/25 01:36:36;;;;;;;11.68;10.57;;;20.40;99.90;;;;;;5054129;28;20560;-95
2022/07/25 01:39:03;;;;;;;11.43;10.43;;;20.30;99.90;;;;;;5060038;28;20503;-94
2022/07/25 01:41:44;;;;;;;11.40;10.30;;;20.40;99.90;;;;;;5056721;28;20050;-94
2022/07/25 01:44:17;;;;;;;11.88;10.77;;;20.40;99.90;;;;;;5052877;28;20036;-94
2022/07/25 01:46:47;;;;;;;12.50;11.30;;;20.30;99.90;;;;;;5070943;28;20054;-95
2022/07/25 01:49:25;;;;;;;11.95;10.82;;;20.30;99.90;;;;;;5068141;28;20075;-93
2022/07/25 01:51:57;;;;;;;12.75;11.20;;;20.30;99.90;;;;;;5067277;28;20051;-95
2022/07/25 01:54:31;;;;;;;12.43;11.20;;;20.20;99.90;;;;;;5058619;28;20047;-94
2022/07/25 01:56:59;;;;;;;18.27;11.35;;;20.30;99.90;;;;;;5074852;28;20040;-94
2022/07/25 01:59:36;;;;;;;13.50;11.75;;;20.20;99.90;;;;;;5073480;28;20044;-95
2022/07/25 02:02:03;;;;;;;12.10;11.00;;;20.20;99.90;;;;;;5066321;28;20078;-94
2022/07/25 02:04:32;;;;;;;12.88;11.65;;;20.10;99.90;;;;;;5065830;28;20086;-96
2022/07/25 02:06:59;;;;;;;12.63;11.27;;;20.10;99.90;;;;;;5056712;28;20043;-95
2022/07/25 02:09:28;;;;;;;13.15;11.85;;;20.20;99.90;;;;;;5070017;28;20059;-95
2022/07/25 02:11:54;;;;;;;13.45;12.15;;;20.10;99.90;;;;;;5054694;28;20051;-94
2022/07/25 02:14:21;;;;;;;12.98;11.68;;;20.10;99.90;;;;;;5070469;28;20059;-95
2022/07/25 02:16:48;;;;;;;14.68;11.98;;;20.00;99.90;;;;;;5049030;28;20057;-95
2022/07/25 02:19:17;;;;;;;13.38;12.07;;;20.10;99.90;;;;;;5073816;28;20043;-94
2022/07/25 02:21:47;;;;;;;13.07;11.85;;;20.00;99.90;;;;;;5079436;28;20039;-95
2022/07/25 02:24:13;;;;;;;13.35;12.05;;;20.00;99.90;;;;;;5074699;28;20064;-95
2022/07/25 02:26:40;;;;;;;12.27;11.10;;;19.90;99.90;;;;;;5055149;28;20039;-94
2022/07/25 02:29:10;;;;;;;14.18;12.73;;;19.90;99.90;;;;;;5126064;28;20958;-94
2022/07/25 02:31:54;;;;;;;13.30;11.98;;;19.90;99.90;;;;;;5056706;28;20048;-95
2022/07/25 02:34:20;;;;;;;15.82;11.93;;;19.90;99.90;;;;;;5104460;28;20491;-95
2022/07/25 02:36:46;;;;;;;12.90;11.60;;;19.80;99.90;;;;;;5049979;28;20118;-94
2022/07/25 02:39:22;;;;;;;13.35;11.98;;;19.80;99.90;;;;;;5095458;28;20043;-95
2022/07/25 02:41:48;;;;;;;13.25;12.05;;;19.80;99.90;;;;;;5078027;28;20107;-94
2022/07/25 02:44:18;;;;;;;13.77;12.55;;;19.70;99.90;;;;;;5078882;28;20110;-94
2022/07/25 02:46:48;;;;;;;13.82;12.43;;;19.70;99.90;;;;;;5091455;28;20047;-94
2022/07/25 02:49:15;;;;;;;13.18;11.98;;;19.70;99.90;;;;;;5072919;28;20044;-95
2022/07/25 02:51:56;;;;;;;14.38;12.95;;;19.80;99.90;;;;;;5059974;28;20131;-95
2022/07/25 02:54:23;;;;;;;14.80;13.27;;;19.80;99.90;;;;;;5087407;28;20043;-94
2022/07/25 02:56:53;;;;;;;15.40;13.93;;;19.80;99.90;;;;;;5085739;28;21534;-94
2022/07/25 02:59:20;;;;;;;14.68;13.07;;;19.70;99.90;;;;;;5100286;27;20050;-94
2022/07/25 03:01:46;;;;;;;15.07;13.68;;;19.70;99.90;;;;;;5079766;27;20050;-94
2022/07/25 03:04:20;;;;;;;16.05;14.43;;;19.70;99.90;;;;;;5067566;27;20043;-94
2022/07/25 03:06:49;;;;;;;14.15;12.73;;;19.70;99.90;;;;;;5073738;27;20043;-95
2022/07/25 03:09:19;;;;;;;15.10;13.55;;;19.60;99.90;;;;;;5084076;27;20043;-95
2022/07/25 03:11:55;;;;;;;16.90;13.93;;;19.60;99.90;;;;;;5081861;27;20788;-95
2022/07/25 03:14:21;;;;;;;15.25;13.75;;;19.60;99.90;;;;;;5066595;27;20071;-93
2022/07/25 03:16:47;;;;;;;15.77;14.13;;;19.60;99.90;;;;;;5078500;27;20746;-94
2022/07/25 03:19:17;;;;;;;16.17;14.43;;;19.60;99.90;;;;;;5075127;27;20036;-95
2022/07/25 03:21:50;;;;;;;15.57;14.13;;;19.50;99.90;;;;;;5095117;28;20507;-94
2022/07/25 03:24:24;;;;;;;16.25;14.68;;;19.50;99.90;;;;;;5069605;27;20058;-94
2022/07/25 03:27:03;;;;;;;;;;;19.50;99.90;;;;;;5100051;27;20123;-96
2022/07/25 03:29:29;;;;;;;15.75;14.35;;;19.50;99.90;;;;;;5135031;27;19969;-95
2022/07/25 03:32:06;;;;;;;16.27;14.88;;;19.40;99.90;;;;;;5105916;27;20054;-95
2022/07/25 03:34:56;;;;;;;17.95;15.80;;;19.40;99.90;;;;;;5126600;27;20600;-95
2022/07/25 03:37:24;;;;;;;16.02;14.63;;;19.30;99.90;;;;;;5097174;27;20337;-93
2022/07/25 03:39:51;;;;;;;15.70;14.20;;;19.40;99.90;;;;;;5090620;27;20460;-94
2022/07/25 03:42:24;;;;;;;17.15;15.57;;;19.40;99.90;;;;;;5080379;27;20036;-95
2022/07/25 03:44:51;;;;;;;16.30;14.48;;;19.40;99.90;;;;;;5069559;27;20035;-94
2022/07/25 03:47:17;;;;;;;17.33;15.63;;;19.30;99.90;;;;;;5050153;27;20039;-94
2022/07/25 03:49:45;;;;;;;17.92;16.33;;;19.30;99.90;;;;;;5096763;27;20554;-95
2022/07/25 03:52:22;;;;;;;20.48;15.13;;;19.40;99.90;;;;;;5074777;27;20100;-95
2022/07/25 03:54:51;;;;;;;17.90;16.30;;;19.50;99.90;;;;;;5077200;27;20361;-93
2022/07/25 03:57:29;;;;;;;17.98;16.33;;;19.40;99.90;;;;;;5079451;27;20043;-94
2022/07/25 03:59:58;;;;;;;18.15;15.90;;;19.40;99.90;;;;;;5076561;27;20065;-94
2022/07/25 04:02:34;;;;;;;18.42;16.02;;;19.40;99.90;;;;;;5096944;27;20070;-95
2022/07/25 04:05:06;;;;;;;18.80;16.90;;;19.40;99.90;;;;;;5094618;27;20035;-93
2022/07/25 04:07:54;;;;;;;17.30;15.60;;;19.40;99.90;;;;;;5086520;27;20043;-94
2022/07/25 04:10:21;;;;;;;18.40;16.50;;;19.50;99.90;;;;;;5081005;27;20040;-92
2022/07/25 04:12:50;;;;;;;18.00;16.25;;;19.50;99.90;;;;;;5115752;27;20046;-93
2022/07/25 04:15:19;;;;;;;17.73;15.95;;;19.40;99.90;;;;;;5086749;27;20478;-94
2022/07/25 04:18:06;;;;;;;18.85;16.75;;;19.40;99.90;;;;;;5098064;27;20046;-93
2022/07/25 04:20:32;;;;;;;18.27;16.52;;;19.40;99.90;;;;;;5077877;27;20395;-94
2022/07/25 04:22:59;;;;;;;17.55;15.85;;;19.50;99.90;;;;;;5092787;27;20039;-94
2022/07/25 04:25:25;;;;;;;17.17;15.57;;;19.40;99.90;;;;;;5072950;27;20157;-94
2022/07/25 04:27:51;;;;;;;16.80;15.30;;;19.50;99.90;;;;;;5080895;27;20047;-93
2022/07/25 04:30:19;;;;;;;17.83;16.02;;;19.60;99.90;;;;;;5093585;27;20146;-95
2022/07/25 04:32:48;;;;;;;17.05;15.50;;;19.60;99.90;;;;;;5073371;27;20043;-93
2022/07/25 04:35:15;;;;;;;17.75;15.25;;;19.70;99.90;;;;;;5079076;27;20043;-92
2022/07/25 04:37:47;;;;;;;17.13;15.45;;;19.70;99.90;;;;;;5082134;27;20039;-93
2022/07/25 04:40:16;;;;;;;17.95;16.27;;;19.80;99.90;;;;;;5090014;27;20392;-92
2022/07/25 04:42:50;;;;;;;17.73;15.85;;;19.90;99.90;;;;;;5097475;27;20088;-94
2022/07/25 04:45:37;;;;;;;17.10;15.05;;;20.00;99.90;;;;;;5057384;27;20046;-93
2022/07/25 04:48:03;;;;;;;16.90;15.30;;;20.10;99.90;;;;;;5090507;27;20479;-92
2022/07/25 04:50:30;;;;;;;16.40;14.90;;;20.20;99.90;;;;;;5080719;27;20156;-93
2022/07/25 04:53:00;;;;;;;15.90;14.32;;;20.30;99.90;;;;;;5056142;27;20038;-93
2022/07/25 04:55:27;;;;;;;15.45;14.10;;;20.30;99.90;;;;;;5073464;28;20058;-94
2022/07/25 04:57:53;;;;;;;16.15;14.50;;;20.40;99.90;;;;;;5079739;27;20517;-94
2022/07/25 05:00:22;;;;;;;17.00;15.38;;;20.40;99.90;;;;;;5077984;27;20040;-94
2022/07/25 05:02:49;;;;;;;18.25;16.10;;;20.50;99.90;;;;;;5096774;27;20063;-93
2022/07/25 05:05:15;;;;;;;18.45;16.60;;;20.50;99.90;;;;;;5073480;27;20588;-94
2022/07/25 05:07:45;;;;;;;19.08;17.27;;;20.60;99.90;;;;;;5075754;27;20042;-95
2022/07/25 05:10:12;;;;;;;18.48;16.55;;;20.70;99.90;;;;;;5095195;27;20047;-92
2022/07/25 05:12:38;;;;;;;17.15;15.52;;;20.80;99.90;;;;;;5074499;27;20107;-89
2022/07/25 05:15:05;;;;;;;18.65;16.75;;;21.10;99.90;;;;;;5062785;27;20556;-91
2022/07/25 05:17:31;;;;;;;17.77;15.77;;;21.20;99.90;;;;;;5066804;28;20051;-92
2022/07/25 05:19:58;;;;;;;18.88;17.02;;;21.40;99.90;;;;;;5053883;28;20048;-93
2022/07/25 05:22:24;;;;;;;18.58;16.83;;;21.50;99.90;;;;;;5049816;28;20044;-94
2022/07/25 05:24:50;;;;;;;18.65;16.85;;;21.60;99.90;;;;;;5083891;28;20507;-93
2022/07/25 05:27:17;;;;;;;18.38;16.30;;;21.70;99.90;;;;;;5066256;28;20036;-94
2022/07/25 05:29:43;;;;;;;17.13;15.50;;;21.80;99.90;;;;;;5053840;28;20040;-94
2022/07/25 05:32:12;;;;;;;17.05;15.45;;;21.90;99.90;;;;;;5020044;28;20036;-86
2022/07/25 05:34:39;;;;;;;17.67;15.82;;;21.90;99.90;;;;;;5049970;28;20048;-88
2022/07/25 05:37:20;;;;;;;17.38;15.60;;;22.00;99.90;;;;;;5066054;28;20059;-91
2022/07/25 05:39:47;;;;;;;16.77;15.10;;;22.00;99.90;;;;;;5049367;28;20047;-91
2022/07/25 05:42:30;;;;;;;17.88;16.27;;;22.10;99.90;;;;;;5075160;27;20047;-90
2022/07/25 05:45:19;;;;;;;17.25;15.45;;;22.20;99.90;;;;;;5054803;28;20430;-90
2022/07/25 05:47:47;;;;;;;17.55;15.85;;;22.40;99.90;;;;;;5054494;28;20120;-90
2022/07/25 05:50:14;;;;;;;16.50;14.90;;;22.40;99.90;;;;;;5037515;28;20053;-87
2022/07/25 05:52:41;;;;;;;20.33;18.25;;;22.40;99.90;;;;;;5050455;28;20050;-87
2022/07/25 05:55:08;;;;;;;16.40;14.82;;;22.40;99.90;;;;;;5094031;28;20039;-87
2022/07/25 05:57:35;;;;;;;18.05;15.35;;;22.40;99.90;;;;;;5048391;28;20040;-87
2022/07/25 06:00:09;;;;;;;16.63;15.02;;;22.40;99.90;;;;;;5075293;28;20109;-91
2022/07/25 06:02:36;;;;;;;17.60;15.20;;;22.50;99.90;;;;;;5056161;28;20081;-87
2022/07/25 06:05:02;;;;;;;17.60;15.25;;;22.60;99.90;;;;;;5082733;28;20043;-85
2022/07/25 06:07:29;;;;;;;16.25;14.70;;;22.80;99.90;;;;;;5098398;28;20178;-90
2022/07/25 06:09:55;;;;;;;16.23;14.63;;;22.80;99.90;;;;;;5070701;28;20062;-93
2022/07/25 06:12:22;;;;;;;15.23;13.63;;;22.90;99.90;;;;;;5061489;28;20044;-93
2022/07/25 06:14:49;;;;;;;14.15;12.75;;;22.90;99.90;;;;;;5071102;28;20120;-94
2022/07/25 06:17:53;;;;;;;18.55;14.25;;;23.00;99.90;;;;;;5056589;28;20056;-93
2022/07/25 06:20:19;;;;;;;16.70;14.27;;;23.10;99.90;;;;;;5071285;28;20051;-94
2022/07/25 06:22:45;;;;;;;14.30;12.90;;;23.20;99.90;;;;;;5053964;28;20131;-92
2022/07/25 06:25:11;;;;;;;15.30;13.18;;;23.30;99.90;;;;;;5040287;28;20092;-93
2022/07/25 06:27:38;;;;;;;16.00;14.40;;;23.50;99.90;;;;;;5054406;28;20036;-94
2022/07/25 06:30:06;;;;;;;15.43;13.82;;;23.80;99.90;;;;;;5051517;28;20567;-86
2022/07/25 06:32:33;;;;;;;13.98;12.65;;;23.90;99.90;;;;;;5067330;28;20055;-87
2022/07/25 06:34:59;;;;;;;14.85;13.55;;;24.20;99.90;;;;;;5057519;28;20047;-89
2022/07/25 06:37:26;;;;;;;14.70;13.40;;;24.40;99.90;;;;;;5090301;28;20881;-90
2022/07/25 06:39:55;;;;;;;14.07;12.70;;;24.60;99.90;;;;;;5081588;28;20122;-86
2022/07/25 06:42:21;;;;;;;14.23;12.85;;;24.60;99.90;;;;;;5046164;28;20466;-86
2022/07/25 06:44:49;;;;;;;15.20;13.90;;;24.80;99.90;;;;;;5074174;28;20043;-87
2022/07/25 06:47:20;;;;;;;14.80;13.13;;;25.10;99.90;;;;;;5051707;28;20117;-88
2022/07/25 06:49:47;;;;;;;14.23;12.77;;;25.10;99.90;;;;;;5068643;28;20784;-87
2022/07/25 06:52:14;;;;;;;14.82;13.13;;;25.20;99.90;;;;;;5062792;28;20048;-88
2022/07/25 06:54:40;;;;;;;12.98;11.63;;;25.30;99.90;;;;;;5043653;28;20124;-88
2022/07/25 06:57:15;;;;;;;12.90;11.55;;;25.50;99.90;;;;;;5049405;28;20092;-87
2022/07/25 06:59:44;;;;;;;12.88;11.68;;;25.60;99.90;;;;;;5063496;28;20074;-90
2022/07/25 07:02:15;;;;;;;;;;;25.70;99.90;;;;;;5068139;28;20475;-92
2022/07/25 07:04:45;;;;;;;12.77;11.38;;;25.90;99.90;;;;;;5067501;28;20302;-90
2022/07/25 07:07:13;;;;;;;13.00;11.00;;;26.10;99.90;;;;;;5063984;28;20036;-87
2022/07/25 07:09:39;;;;;;;11.68;10.48;;;26.30;99.90;;;;;;5067945;28;20078;-90
2022/07/25 07:12:06;;;;;;;16.80;15.30;;;26.40;99.90;;;;;;5051879;28;20542;-86
2022/07/25 07:14:32;;;;;;;11.77;10.55;;;26.30;99.90;;;;;;5051386;28;20077;-87
2022/07/25 07:16:58;;;;;;;11.18;10.00;;;26.10;99.90;;;;;;5056925;27;20853;-88
2022/07/25 07:19:25;;;;;;;12.18;10.98;;;26.30;99.90;;;;;;5071266;27;20046;-89
2022/07/25 07:21:51;;;;;;;14.93;9.85;;;26.50;99.90;;;;;;5071992;27;20043;-89
2022/07/25 07:24:17;;;;;;;11.90;10.60;;;26.90;99.90;;;;;;5065466;27;20126;-89
2022/07/25 07:26:47;;;;;;;13.88;11.15;;;27.10;99.90;;;;;;5088804;27;20043;-89
2022/07/25 07:29:13;;;;;;;10.75;9.50;;;27.30;99.90;;;;;;5071966;27;20089;-88
2022/07/25 07:31:40;;;;;;;12.98;11.00;;;27.60;99.90;;;;;;5055804;27;20092;-88
2022/07/25 07:34:07;;;;;;;12.38;11.15;;;27.60;99.90;;;;;;5083396;27;20040;-89
2022/07/25 07:36:33;;;;;;;11.88;10.73;;;27.30;99.90;;;;;;5074614;27;20040;-89
2022/07/25 07:39:06;;;;;;;13.07;11.68;;;27.10;99.90;;;;;;5069588;28;20038;-90
2022/07/25 07:41:33;;;;;;;12.77;11.57;;;26.90;99.90;;;;;;5077410;27;20071;-90
2022/07/25 07:43:59;;;;;;;12.15;11.05;;;26.80;99.90;;;;;;5076319;28;20126;-90
2022/07/25 07:46:25;;;;;;;11.82;10.82;;;26.70;99.90;;;;;;5096700;27;20402;-87
2022/07/25 07:48:51;;;;;;;15.48;13.98;;;26.50;99.90;;;;;;5081729;27;20046;-88
2022/07/25 07:51:18;;;;;;;14.65;13.15;;;26.30;99.90;;;;;;5096369;27;20137;-89
2022/07/25 07:56:30;;;;;;;14.88;13.57;;;26.20;99.90;;;;;;5115817;27;20031;-89
2022/07/25 07:58:56;;;;;;;13.48;12.18;;;26.00;99.90;;;;;;5096174;27;20104;-89
2022/07/25 08:01:24;;;;;;;14.90;13.43;;;26.30;99.90;;;;;;5110719;27;20034;-90
2022/07/25 08:03:50;;;;;;;13.98;12.40;;;26.50;99.90;;;;;;5099395;27;20047;-89
2022/07/25 08:06:17;;;;;;;14.98;13.27;;;26.80;99.90;;;;;;5098347;27;20062;-88
2022/07/25 08:08:43;;;;;;;14.15;12.77;;;26.90;99.90;;;;;;5077710;27;20044;-88
2022/07/25 08:11:11;;;;;;;13.75;11.98;;;26.80;99.90;;;;;;5082727;27;20077;-87
2022/07/25 08:13:37;;;;;;;12.25;10.70;;;26.80;99.90;;;;;;5093840;27;20050;-88
2022/07/25 08:16:04;;;;;;;14.27;11.25;;;26.80;99.90;;;;;;5060308;27;20039;-87
2022/07/25 08:18:31;;;;;;;12.57;9.85;;;26.60;99.90;;;;;;5072320;27;20055;-86
2022/07/25 08:21:01;;;;;;;10.93;9.82;;;26.40;99.90;;;;;;5078613;27;20070;-87
2022/07/25 08:23:28;;;;;;;9.68;8.32;;;26.20;99.90;;;;;;5074767;27;20040;-87
2022/07/25 08:25:54;;;;;;;12.32;9.55;;;26.00;99.90;;;;;;5074652;27;20490;-87
2022/07/25 08:28:23;;;;;;;9.27;8.10;;;26.00;99.90;;;;;;5070774;27;20043;-88
2022/07/25 08:30:53;;;;;;;11.23;9.02;;;26.40;99.90;;;;;;5051132;27;20054;-87
2022/07/25 08:33:19;;;;;;;9.55;8.60;;;26.70;99.90;;;;;;5085959;27;20051;-87
2022/07/25 08:35:52;;;;;;;8.43;7.55;;;26.70;99.90;;;;;;5090007;27;20050;-87
2022/07/25 08:38:20;;;;;;;9.73;8.73;;;26.60;99.90;;;;;;5076879;27;20051;-88
2022/07/25 08:40:47;;;;;;;9.18;8.05;;;26.50;99.90;;;;;;5071405;27;20048;-88
2022/07/25 08:43:15;;;;;;;9.02;7.35;;;26.40;99.90;;;;;;5070296;27;20035;-88
2022/07/25 08:46:04;;;;;;;8.63;7.45;;;26.30;99.90;;;;;;5050303;27;20047;-88
2022/07/25 08:48:31;;;;;;;8.07;7.07;;;26.10;99.90;;;;;;5072383;27;20043;-88
2022/07/25 08:50:59;;;;;;;11.23;8.75;;;26.00;99.90;;;;;;5074287;27;20050;-88
2022/07/25 08:53:26;;;;;;;9.10;7.85;;;25.90;99.90;;;;;;5071681;27;20054;-89
2022/07/25 08:55:52;;;;;;;10.85;8.85;;;25.70;99.90;;;;;;5069646;28;20043;-87
2022/07/25 08:58:19;;;;;;;9.85;7.97;;;25.30;99.90;;;;;;5070945;27;20652;-87
2022/07/25 09:00:45;;;;;;;9.00;8.07;;;25.10;99.90;;;;;;5081730;27;20039;-88
2022/07/25 09:03:14;;;;;;;8.85;7.95;;;25.00;99.90;;;;;;5057887;27;20053;-88
2022/07/25 09:05:41;;;;;;;9.98;8.80;;;24.90;99.90;;;;;;5050886;27;20058;-90
2022/07/25 09:08:10;;;;;;;10.07;8.73;;;25.00;99.90;;;;;;5079919;27;20047;-89
2022/07/25 09:10:38;;;;;;;9.80;8.80;;;24.90;99.90;;;;;;5086721;28;20055;-92
2022/07/25 09:13:12;;;;;;;9.70;8.70;;;25.00;99.90;;;;;;5077911;27;20039;-92
2022/07/25 09:15:54;;;;;;;12.13;8.82;;;25.10;99.90;;;;;;5071282;27;20105;-88
2022/07/25 09:18:25;;;;;;;10.38;9.38;;;25.00;99.90;;;;;;5084980;27;20051;-88
2022/07/25 09:20:54;;;;;;;12.48;9.75;;;25.10;99.90;;;;;;5059323;27;20035;-87
2022/07/25 09:23:28;;;;;;;10.10;9.10;;;25.10;99.90;;;;;;5066448;27;20390;-84
2022/07/25 09:26:05;;;;;;;10.38;9.48;;;25.20;99.90;;;;;;5083927;27;20569;-86
2022/07/25 09:28:39;;;;;;;9.48;7.95;;;25.20;99.90;;;;;;5092415;27;20051;-87
2022/07/25 09:31:06;;;;;;;8.63;6.45;;;25.30;99.90;;;;;;5095563;27;20113;-86
2022/07/25 09:33:44;;;;;;;8.43;6.20;;;25.50;99.90;;;;;;5092890;27;20039;-86
2022/07/25 09:36:11;;;;;;;8.82;5.65;;;25.70;99.90;;;;;;5058618;28;20152;-84
2022/07/25 09:38:37;;;;;;;6.57;5.90;;;25.70;99.90;;;;;;5068630;27;20151;-87
2022/07/25 09:41:04;;;;;;;4.70;3.60;;;25.80;99.90;;;;;;5074200;28;20043;-89
2022/07/25 09:43:41;;;;;;;4.78;2.83;;;26.00;99.90;;;;;;5053426;27;20043;-89
2022/07/25 09:46:10;;;;;;;6.60;2.92;;;26.20;99.90;;;;;;5084727;27;20486;-87
2022/07/25 09:48:43;;;;;;;4.97;2.90;;;26.50;99.90;;;;;;5064317;28;20759;-87
2022/07/25 09:51:09;;;;;;;3.67;2.40;;;26.50;99.90;;;;;;5068361;27;20259;-86
2022/07/25 09:53:35;;;;;;;4.25;2.90;;;27.00;99.90;;;;;;5073345;27;20039;-88
2022/07/25 09:56:02;;;;;;;4.18;2.42;;;27.20;99.90;;;;;;5070461;27;20486;-88
2022/07/25 09:58:28;;;;;;;4.22;2.65;;;27.20;99.90;;;;;;5072670;28;20430;-87
2022/07/25 10:01:04;;;;;;;4.38;2.20;;;26.90;99.90;;;;;;5058161;28;20383;-93
2022/07/25 10:03:55;;;;;;;4.60;1.88;;;26.80;99.90;;;;;;5081513;27;20044;-95
2022/07/25 10:06:36;;;;;;;4.43;2.00;;;26.50;99.90;;;;;;5078420;27;20035;-92
2022/07/25 10:09:12;;;;;;;3.25;1.80;;;26.20;99.90;;;;;;5075806;27;20558;-93
2022/07/25 10:11:58;;;;;;;4.35;2.05;;;25.90;99.90;;;;;;5099027;28;20410;-92
2022/07/25 10:14:24;;;;;;;5.45;2.35;;;25.60;99.90;;;;;;5076068;28;20091;-91
2022/07/25 10:17:00;;;;;;;3.78;1.90;;;25.80;99.90;;;;;;5054115;28;20145;-94
2022/07/25 10:19:44;;;;;;;5.72;2.30;;;26.30;99.90;;;;;;5069288;28;20048;-92
2022/07/25 10:22:11;;;;;;;3.63;2.05;;;26.80;99.90;;;;;;5067615;28;20039;-96
2022/07/25 10:24:38;;;;;;;4.60;2.58;;;26.80;99.90;;;;;;5070831;28;20056;-96
2022/07/25 10:27:12;;;;;;;5.68;2.45;;;27.30;99.90;;;;;;5031847;28;20048;-96
2022/07/25 10:29:40;;;;;;;6.78;2.70;;;27.50;99.90;;;;;;5077436;28;20107;-95
2022/07/25 10:32:10;;;;;;;5.20;1.80;;;28.10;99.90;;;;;;5057575;28;20077;-92
2022/07/25 10:34:58;;;;;;;4.10;1.30;;;28.00;99.90;;;;;;5063970;28;20039;-92
2022/07/25 10:37:31;;;;;;;5.00;1.57;;;27.90;99.90;;;;;;5078102;28;20040;-90
2022/07/25 10:40:01;;;;;;;3.30;1.70;;;27.50;99.90;;;;;;5059809;28;20286;-90
2022/07/25 10:42:45;;;;;;;2.92;1.77;;;27.10;99.90;;;;;;5040416;28;20050;-90
2022/07/25 10:45:16;;;;;;;4.95;2.38;;;26.60;99.90;;;;;;5071272;28;20062;-92
2022/07/25 10:47:55;;;;;;;5.32;2.53;;;26.40;99.90;;;;;;5053786;28;20076;-91
2022/07/25 10:50:29;;;;;;;2.72;1.48;;;26.10;99.90;;;;;;5072810;28;20079;-91
2022/07/25 10:52:59;;;;;;;2.25;1.13;;;25.70;99.90;;;;;;5062630;28;20040;-88
2022/07/25 10:55:27;;;;;;;3.60;1.42;;;25.60;99.90;;;;;;5028748;28;20052;-95
2022/07/25 10:58:05;;;;;;;3.08;1.75;;;25.70;99.90;;;;;;5055615;28;20046;-92
2022/07/25 11:00:45;;;;;;;2.22;1.77;;;25.90;99.90;;;;;;5052300;28;20040;-90
2022/07/25 11:03:21;;;;;;;3.08;1.20;;;25.80;99.90;;;;;;5053475;28;20495;-91
2022/07/25 11:05:53;;;;;;;3.95;1.30;;;25.50;99.90;;;;;;5056584;28;20436;-90
2022/07/25 11:08:36;;;;;;;6.03;1.23;;;25.30;99.90;;;;;;5064442;28;20104;-95
2022/07/25 11:11:09;;;;;;;4.40;1.48;;;25.20;99.90;;;;;;5081411;28;20052;-90
2022/07/25 11:13:40;;;;;;;5.80;1.48;;;25.00;99.90;;;;;;5078720;28;20042;-89
2022/07/25 11:16:08;;;;;;;6.13;1.95;;;25.00;99.90;;;;;;5067039;28;20040;-93
2022/07/25 11:18:37;;;;;;;6.75;2.20;;;24.80;99.90;;;;;;5050840;28;20877;-92
2022/07/25 11:21:07;;;;;;;5.88;2.15;;;24.60;99.90;;;;;;5087657;27;20031;-90
2022/07/25 11:23:36;;;;;;;5.07;2.13;;;24.60;99.90;;;;;;5110395;27;20163;-89
2022/07/25 11:26:07;;;;;;;4.60;2.10;;;25.00;99.90;;;;;;5074473;27;20071;-90
2022/07/25 11:28:42;;;;;;;6.80;2.45;;;25.70;99.90;;;;;;5080308;27;20039;-91
2022/07/25 11:31:09;;;;;;;5.55;1.80;;;26.30;99.90;;;;;;5072873;27;20039;-89
2022/07/25 11:33:37;;;;;;;7.88;2.05;;;26.50;99.90;;;;;;5108071;27;20180;-91
2022/07/25 11:36:03;;;;;;;6.47;2.72;;;26.30;99.90;;;;;;5076599;27;20113;-91
2022/07/25 11:38:31;;;;;;;8.32;2.08;;;26.10;99.90;;;;;;5042631;27;20031;-87
2022/07/25 11:40:57;;;;;;;5.03;1.90;;;26.00;99.90;;;;;;5062724;27;20102;-91
2022/07/25 11:43:24;;;;;;;5.85;2.75;;;25.90;99.90;;;;;;5075769;27;20044;-91
2022/07/25 11:46:09;;;;;;;7.50;1.80;;;26.20;99.90;;;;;;5074659;27;20040;-87
2022/07/25 11:48:38;;;;;;;8.43;3.55;;;26.20;99.90;;;;;;5105784;27;20126;-94
2022/07/25 11:51:10;;;;;;;6.85;2.50;;;26.10;99.90;;;;;;5077039;27;20070;-87
2022/07/25 11:53:44;;;;;;;6.80;5.50;;;25.90;99.90;;;;;;5072207;27;20122;-85
2022/07/25 11:56:19;;;;;;;14.18;9.43;;;25.90;99.90;;;;;;5071182;27;20047;-83
2022/07/25 11:58:59;;;;;;;8.25;4.22;;;26.20;99.90;;;;;;5089291;27;20498;-85
2022/07/25 12:01:36;;;;;;;7.22;2.40;;;26.30;99.90;;;;;;5079898;27;20054;-84
2022/07/25 12:04:18;;;;;;;8.70;3.10;;;26.30;99.90;;;;;;5080687;27;20586;-85
2022/07/25 12:06:51;;;;;;;8.38;3.22;;;26.20;99.90;;;;;;5072150;27;20858;-84
2022/07/25 12:09:19;;;;;;;6.13;2.25;;;26.20;99.90;;;;;;5086535;27;20410;-83
2022/07/25 12:11:47;;;;;;;4.68;1.85;;;26.40;99.90;;;;;;5090617;27;20201;-84
2022/07/25 12:14:14;;;;;;;4.82;2.00;;;26.30;99.90;;;;;;5086599;27;20593;-85
2022/07/25 12:16:41;;;;;;;7.43;2.58;;;26.10;99.90;;;;;;5087351;27;20151;-85
2022/07/25 12:19:18;;;;;;;6.40;2.22;;;25.40;99.90;;;;;;5073479;27;20494;-86
2022/07/25 12:21:45;;;;;;;5.63;2.20;;;25.30;99.90;;;;;;5076640;27;20035;-87
2022/07/25 12:24:11;;;;;;;7.18;2.35;;;25.20;99.90;;;;;;5132060;27;20035;-87
2022/07/25 12:26:37;;;;;;;6.40;2.10;;;25.30;99.90;;;;;;5113459;27;20035;-87
2022/07/25 12:29:03;;;;;;;8.00;2.63;;;25.00;99.90;;;;;;5114807;27;20039;-87
2022/07/25 12:31:30;;;;;;;8.30;4.03;;;25.10;99.90;;;;;;5079245;27;20031;-86
2022/07/25 12:33:58;;;;;;;8.02;5.00;;;25.30;99.90;;;;;;5104810;27;20043;-85
2022/07/25 12:36:26;;;;;;;6.90;3.10;;;25.50;99.90;;;;;;5089757;27;20042;-86
2022/07/25 12:38:52;;;;;;;4.90;2.50;;;25.50;99.90;;;;;;5096897;27;20125;-86
2022/07/25 12:41:21;;;;;;;5.78;2.55;;;25.70;99.90;;;;;;5059144;27;20490;-86
2022/07/25 12:43:48;;;;;;;5.50;1.60;;;25.70;99.90;;;;;;5062608;27;20042;-86
2022/07/25 12:46:15;;;;;;;4.57;1.80;;;25.90;99.90;;;;;;5110739;27;20051;-85
2022/07/25 12:48:41;;;;;;;5.55;1.98;;;25.50;99.90;;;;;;5078488;27;20115;-85
2022/07/25 12:51:07;;;;;;;6.65;1.50;;;25.40;99.90;;;;;;5094694;27;20042;-86